sensor_id;sensor_type;location;lat;lon;timestamp;temperature;humidity
13049;DHT22;6591;51.446;5.404;2023-02-12T00:01:22;10.60;99.90
13049;DHT22;6591;51.446;5.404;2023-02-12T00:03:50;10.60;99.90
13049;DHT22;6591;51.446;5.404;2023-02-12T00:06:18;10.60;99.90
13049;DHT22;6591;51.446;5.404;2023-02-12T00:08:51;11.60;99.90
13049;DHT22;6591;51.446;5.404;2023-02-12T00:11:25;10.50;99.90
13049;DHT22;6591;51.446;5.404;2023-02-12T00:13:54;10.50;99.90
13049;DHT22;6591;51.446;5.404;2023-02-12T00:16:24;10.50;99.90
13049;DHT22;6591;51.446;5.404;2023-02-12T00:18:56;10.50;99.90
13049;DHT22;6591;51.446;5.404;2023-02-12T00:21:25;10.50;99.90
13049;DHT22;6591;51.446;5.404;2023-02-12T00:23:52;10.50;99.90
13049;DHT22;6591;51.446;5.404;2023-02-12T00:26:20;11.30;99.90
13049;DHT22;6591;51.446;5.404;2023-02-12T00:28:50;11.70;99.90
13049;DHT22;6591;51.446;5.404;2023-02-12T00:31:20;10.50;99.90
13049;DHT22;6591;51.446;5.404;2023-02-12T00:33:55;10.50;99.90
13049;DHT22;6591;51.446;5.404;2023-02-12T00:36:24;10.40;99.90
13049;DHT22;6591;51.446;5.404;2023-02-12T00:38:55;10.40;99.90
13049;DHT22;6591;51.446;5.404;2023-02-12T00:41:24;10.40;99.90
13049;DHT22;6591;51.446;5.404;2023-02-12T00:43:52;10.40;99.90
13049;DHT22;6591;51.446;5.404;2023-02-12T00:46:19;10.40;99.90
13049;DHT22;6591;51.446;5.404;2023-02-12T00:48:46;11.10;99.90
13049;DHT22;6591;51.446;5.404;2023-02-12T00:51:13;10.40;99.90
13049;DHT22;6591;51.446;5.404;2023-02-12T00:53:41;10.40;99.90
13049;DHT22;6591;51.446;5.404;2023-02-12T00:56:09;10.40;99.90
13049;DHT22;6591;51.446;5.404;2023-02-12T00:58:36;11.30;99.90
13049;DHT22;6591;51.446;5.404;2023-02-12T01:01:05;10.40;99.90
13049;DHT22;6591;51.446;5.404;2023-02-12T01:03:34;10.60;99.90
13049;DHT22;6591;51.446;5.404;2023-02-12T01:06:01;10.30;99.90
13049;DHT22;6591;51.446;5.404;2023-02-12T01:08:54;10.30;99.90
13049;DHT22;6591;51.446;5.404;2023-02-12T01:12:09;11.80;99.90
13049;DHT22;6591;51.446;5.404;2023-02-12T01:14:36;10.30;99.90
13049;DHT22;6591;51.446;5.404;2023-02-12T01:17:03;11.20;99.90
13049;DHT22;6591;51.446;5.404;2023-02-12T01:19:34;10.60;99.90
13049;DHT22;6591;51.446;5.404;2023-02-12T01:22:01;10.30;99.90
13049;DHT22;6591;51.446;5.404;2023-02-12T01:24:28;10.30;99.90
13049;DHT22;6591;51.446;5.404;2023-02-12T01:26:57;10.20;99.90
13049;DHT22;6591;51.446;5.404;2023-02-12T01:29:24;12.00;99.90
13049;DHT22;6591;51.446;5.404;2023-02-12T01:31:51;10.30;99.90
13049;DHT22;6591;51.446;5.404;2023-02-12T01:34:18;10.30;99.90
13049;DHT22;6591;51.446;5.404;2023-02-12T01:36:45;11.30;99.90
13049;DHT22;6591;51.446;5.404;2023-02-12T01:39:12;11.00;99.90
13049;DHT22;6591;51.446;5.404;2023-02-12T01:41:42;10.30;99.90
13049;DHT22;6591;51.446;5.404;2023-02-12T01:46:47;10.20;99.90
13049;DHT22;6591;51.446;5.404;2023-02-12T01:49:21;10.20;99.90
13049;DHT22;6591;51.446;5.404;2023-02-12T01:52:05;11.50;99.90
13049;DHT22;6591;51.446;5.404;2023-02-12T01:54:34;10.20;99.90
13049;DHT22;6591;51.446;5.404;2023-02-12T01:57:05;10.20;99.90
13049;DHT22;6591;51.446;5.404;2023-02-12T01:59:35;10.60;99.90
13049;DHT22;6591;51.446;5.404;2023-02-12T02:02:03;10.20;99.90
13049;DHT22;6591;51.446;5.404;2023-02-12T02:04:43;10.20;99.90
13049;DHT22;6591;51.446;5.404;2023-02-12T02:07:14;10.70;99.90
13049;DHT22;6591;51.446;5.404;2023-02-12T02:09:42;11.60;99.90
13049;DHT22;6591;51.446;5.404;2023-02-12T02:12:09;11.20;99.90
13049;DHT22;6591;51.446;5.404;2023-02-12T02:14:58;10.20;99.90
13049;DHT22;6591;51.446;5.404;2023-02-12T02:26:53;10.20;99.90
13049;DHT22;6591;51.446;5.404;2023-02-12T02:33:17;10.20;99.90
13049;DHT22;6591;51.446;5.404;2023-02-12T02:41:34;10.20;99.90
13049;DHT22;6591;51.446;5.404;2023-02-12T02:44:13;11.60;99.90
13049;DHT22;6591;51.446;5.404;2023-02-12T02:46:47;10.40;99.90
13049;DHT22;6591;51.446;5.404;2023-02-12T02:49:35;10.20;99.90
13049;DHT22;6591;51.446;5.404;2023-02-12T02:52:10;10.20;99.90
13049;DHT22;6591;51.446;5.404;2023-02-12T02:54:47;10.20;99.90
13049;DHT22;6591;51.446;5.404;2023-02-12T02:57:29;10.90;99.90
13049;DHT22;6591;51.446;5.404;2023-02-12T03:00:17;10.20;99.90
13049;DHT22;6591;51.446;5.404;2023-02-12T03:02:51;10.30;99.90
13049;DHT22;6591;51.446;5.404;2023-02-12T03:05:32;12.10;99.90
13049;DHT22;6591;51.446;5.404;2023-02-12T03:08:13;10.20;99.90
13049;DHT22;6591;51.446;5.404;2023-02-12T03:10:56;11.10;99.90
13049;DHT22;6591;51.446;5.404;2023-02-12T03:13:38;10.20;99.90
13049;DHT22;6591;51.446;5.404;2023-02-12T03:16:22;10.20;99.90
13049;DHT22;6591;51.446;5.404;2023-02-12T03:18:57;10.20;99.90
13049;DHT22;6591;51.446;5.404;2023-02-12T03:21:36;11.90;99.90
13049;DHT22;6591;51.446;5.404;2023-02-12T03:30:06;10.20;99.90
13049;DHT22;6591;51.446;5.404;2023-02-12T03:41:36;10.20;99.90
13049;DHT22;6591;51.446;5.404;2023-02-12T03:44:38;10.20;99.90
13049;DHT22;6591;51.446;5.404;2023-02-12T03:50:31;10.20;99.90
13049;DHT22;6591;51.446;5.404;2023-02-12T03:53:03;10.20;99.90
13049;DHT22;6591;51.446;5.404;2023-02-12T03:55:35;10.20;99.90
13049;DHT22;6591;51.446;5.404;2023-02-12T03:58:10;10.40;99.90
13049;DHT22;6591;51.446;5.404;2023-02-12T04:00:44;10.10;99.90
13049;DHT22;6591;51.446;5.404;2023-02-12T04:03:11;11.30;99.90
13049;DHT22;6591;51.446;5.404;2023-02-12T04:05:39;10.20;99.90
13049;DHT22;6591;51.446;5.404;2023-02-12T04:08:07;10.10;99.90
13049;DHT22;6591;51.446;5.404;2023-02-12T04:13:23;10.20;99.90
13049;DHT22;6591;51.446;5.404;2023-02-12T04:16:17;10.20;99.90
13049;DHT22;6591;51.446;5.404;2023-02-12T04:18:52;10.20;99.90
13049;DHT22;6591;51.446;5.404;2023-02-12T04:21:50;11.60;99.90
13049;DHT22;6591;51.446;5.404;2023-02-12T04:27:25;10.20;99.90
13049;DHT22;6591;51.446;5.404;2023-02-12T04:30:06;12.00;99.90
13049;DHT22;6591;51.446;5.404;2023-02-12T04:32:42;10.20;99.90
13049;DHT22;6591;51.446;5.404;2023-02-12T04:35:46;10.20;99.90
13049;DHT22;6591;51.446;5.404;2023-02-12T04:38:36;10.20;99.90
13049;DHT22;6591;51.446;5.404;2023-02-12T04:41:11;10.20;99.90
13049;DHT22;6591;51.446;5.404;2023-02-12T04:43:42;11.70;99.90
13049;DHT22;6591;51.446;5.404;2023-02-12T04:46:08;10.20;99.90
13049;DHT22;6591;51.446;5.404;2023-02-12T04:48:49;11.80;99.90
13049;DHT22;6591;51.446;5.404;2023-02-12T04:51:19;10.20;99.90
13049;DHT22;6591;51.446;5.404;2023-02-12T04:53:47;10.30;99.90
13049;DHT22;6591;51.446;5.404;2023-02-12T04:56:15;11.00;99.90
13049;DHT22;6591;51.446;5.404;2023-02-12T04:58:42;11.90;99.90
13049;DHT22;6591;51.446;5.404;2023-02-12T05:01:09;10.20;99.90
13049;DHT22;6591;51.446;5.404;2023-02-12T05:03:37;10.20;99.90
13049;DHT22;6591;51.446;5.404;2023-02-12T05:06:08;10.20;99.90
13049;DHT22;6591;51.446;5.404;2023-02-12T05:08:36;10.80;99.90
13049;DHT22;6591;51.446;5.404;2023-02-12T05:11:05;10.20;99.90
13049;DHT22;6591;51.446;5.404;2023-02-12T05:13:34;10.20;99.90
13049;DHT22;6591;51.446;5.404;2023-02-12T05:16:05;10.20;99.90
13049;DHT22;6591;51.446;5.404;2023-02-12T05:18:34;10.20;99.90
13049;DHT22;6591;51.446;5.404;2023-02-12T05:21:03;11.60;99.90
13049;DHT22;6591;51.446;5.404;2023-02-12T05:23:33;10.20;99.90
13049;DHT22;6591;51.446;5.404;2023-02-12T05:26:05;10.20;99.90
13049;DHT22;6591;51.446;5.404;2023-02-12T05:28:40;10.50;99.90
13049;DHT22;6591;51.446;5.404;2023-02-12T05:31:09;11.20;99.90
13049;DHT22;6591;51.446;5.404;2023-02-12T05:33:45;10.20;99.90
13049;DHT22;6591;51.446;5.404;2023-02-12T05:36:19;10.20;99.90
13049;DHT22;6591;51.446;5.404;2023-02-12T05:38:48;10.20;99.90
13049;DHT22;6591;51.446;5.404;2023-02-12T05:41:18;10.20;99.90
13049;DHT22;6591;51.446;5.404;2023-02-12T05:43:48;10.20;99.90
13049;DHT22;6591;51.446;5.404;2023-02-12T05:46:17;10.20;99.90
13049;DHT22;6591;51.446;5.404;2023-02-12T05:48:45;11.50;99.90
13049;DHT22;6591;51.446;5.404;2023-02-12T05:51:15;10.10;99.90
13049;DHT22;6591;51.446;5.404;2023-02-12T05:53:46;11.00;99.90
13049;DHT22;6591;51.446;5.404;2023-02-12T05:56:17;11.60;99.90
13049;DHT22;6591;51.446;5.404;2023-02-12T05:58:50;11.00;99.90
13049;DHT22;6591;51.446;5.404;2023-02-12T06:01:25;10.80;99.90
13049;DHT22;6591;51.446;5.404;2023-02-12T06:03:55;11.80;99.90
13049;DHT22;6591;51.446;5.404;2023-02-12T06:06:25;11.10;99.90
13049;DHT22;6591;51.446;5.404;2023-02-12T06:08:56;10.10;99.90
13049;DHT22;6591;51.446;5.404;2023-02-12T06:11:23;10.10;99.90
13049;DHT22;6591;51.446;5.404;2023-02-12T06:13:51;10.10;99.90
13049;DHT22;6591;51.446;5.404;2023-02-12T06:16:25;10.10;99.90
13049;DHT22;6591;51.446;5.404;2023-02-12T06:18:54;10.10;99.90
13049;DHT22;6591;51.446;5.404;2023-02-12T06:21:24;11.00;99.90
13049;DHT22;6591;51.446;5.404;2023-02-12T06:23:53;11.40;99.90
13049;DHT22;6591;51.446;5.404;2023-02-12T06:26:21;10.10;99.90
13049;DHT22;6591;51.446;5.404;2023-02-12T06:28:49;10.10;99.90
13049;DHT22;6591;51.446;5.404;2023-02-12T06:33:51;10.10;99.90
13049;DHT22;6591;51.446;5.404;2023-02-12T06:36:20;11.50;99.90
13049;DHT22;6591;51.446;5.404;2023-02-12T06:38:47;10.10;99.90
13049;DHT22;6591;51.446;5.404;2023-02-12T06:41:16;10.10;99.90
13049;DHT22;6591;51.446;5.404;2023-02-12T06:43:43;10.40;99.90
13049;DHT22;6591;51.446;5.404;2023-02-12T06:46:11;10.10;99.90
13049;DHT22;6591;51.446;5.404;2023-02-12T06:48:38;11.10;99.90
13049;DHT22;6591;51.446;5.404;2023-02-12T06:51:14;10.10;99.90
13049;DHT22;6591;51.446;5.404;2023-02-12T06:53:43;11.60;99.90
13049;DHT22;6591;51.446;5.404;2023-02-12T06:56:12;11.90;99.90
13049;DHT22;6591;51.446;5.404;2023-02-12T06:58:41;10.00;99.90
13049;DHT22;6591;51.446;5.404;2023-02-12T07:01:15;10.10;99.90
13049;DHT22;6591;51.446;5.404;2023-02-12T07:03:50;11.30;99.90
13049;DHT22;6591;51.446;5.404;2023-02-12T07:06:21;10.10;99.90
13049;DHT22;6591;51.446;5.404;2023-02-12T07:08:49;10.00;99.90
13049;DHT22;6591;51.446;5.404;2023-02-12T07:11:17;11.10;99.90
13049;DHT22;6591;51.446;5.404;2023-02-12T07:13:48;10.10;99.90
13049;DHT22;6591;51.446;5.404;2023-02-12T07:16:15;10.00;99.90
13049;DHT22;6591;51.446;5.404;2023-02-12T07:18:43;11.30;99.90
13049;DHT22;6591;51.446;5.404;2023-02-12T07:21:12;10.10;99.90
13049;DHT22;6591;51.446;5.404;2023-02-12T07:23:41;10.20;99.90
13049;DHT22;6591;51.446;5.404;2023-02-12T07:26:16;10.00;99.90
13049;DHT22;6591;51.446;5.404;2023-02-12T07:28:45;11.70;99.90
13049;DHT22;6591;51.446;5.404;2023-02-12T07:31:15;10.00;99.90
13049;DHT22;6591;51.446;5.404;2023-02-12T07:33:45;10.10;99.90
13049;DHT22;6591;51.446;5.404;2023-02-12T07:36:15;11.40;99.90
13049;DHT22;6591;51.446;5.404;2023-02-12T07:38:43;10.10;99.90
13049;DHT22;6591;51.446;5.404;2023-02-12T07:41:23;10.40;99.90
13049;DHT22;6591;51.446;5.404;2023-02-12T07:44:02;10.00;99.90
13049;DHT22;6591;51.446;5.404;2023-02-12T07:49:12;10.10;99.90
13049;DHT22;6591;51.446;5.404;2023-02-12T07:51:41;11.20;99.90
13049;DHT22;6591;51.446;5.404;2023-02-12T07:54:09;10.10;99.90
13049;DHT22;6591;51.446;5.404;2023-02-12T07:56:38;10.10;99.90
13049;DHT22;6591;51.446;5.404;2023-02-12T07:59:13;10.20;99.90
13049;DHT22;6591;51.446;5.404;2023-02-12T08:01:47;11.50;99.90
13049;DHT22;6591;51.446;5.404;2023-02-12T08:04:18;11.20;99.90
13049;DHT22;6591;51.446;5.404;2023-02-12T08:06:49;10.20;99.90
13049;DHT22;6591;51.446;5.404;2023-02-12T08:09:21;10.20;99.90
13049;DHT22;6591;51.446;5.404;2023-02-12T08:11:50;10.30;99.90
13049;DHT22;6591;51.446;5.404;2023-02-12T08:14:19;11.50;99.90
13049;DHT22;6591;51.446;5.404;2023-02-12T08:16:48;10.70;99.90
13049;DHT22;6591;51.446;5.404;2023-02-12T08:19:16;11.60;99.90
13049;DHT22;6591;51.446;5.404;2023-02-12T08:21:51;10.40;99.90
13049;DHT22;6591;51.446;5.404;2023-02-12T08:24:20;10.50;99.90
13049;DHT22;6591;51.446;5.404;2023-02-12T08:26:50;11.20;99.90
13049;DHT22;6591;51.446;5.404;2023-02-12T08:29:20;11.50;99.90
13049;DHT22;6591;51.446;5.404;2023-02-12T08:31:54;10.90;99.90
13049;DHT22;6591;51.446;5.404;2023-02-12T08:34:34;11.40;99.90
13049;DHT22;6591;51.446;5.404;2023-02-12T08:37:06;10.70;99.90
13049;DHT22;6591;51.446;5.404;2023-02-12T08:39:33;10.80;99.90
13049;DHT22;6591;51.446;5.404;2023-02-12T08:42:00;10.80;99.90
13049;DHT22;6591;51.446;5.404;2023-02-12T08:44:28;10.90;99.90
13049;DHT22;6591;51.446;5.404;2023-02-12T08:46:55;10.90;99.90
13049;DHT22;6591;51.446;5.404;2023-02-12T08:49:25;10.90;99.90
13049;DHT22;6591;51.446;5.404;2023-02-12T08:51:55;11.80;99.90
13049;DHT22;6591;51.446;5.404;2023-02-12T08:54:26;11.10;99.90
13049;DHT22;6591;51.446;5.404;2023-02-12T08:56:59;12.30;99.90
13049;DHT22;6591;51.446;5.404;2023-02-12T08:59:28;11.20;99.90
13049;DHT22;6591;51.446;5.404;2023-02-12T09:01:55;11.20;99.90
13049;DHT22;6591;51.446;5.404;2023-02-12T09:04:25;11.20;99.90
13049;DHT22;6591;51.446;5.404;2023-02-12T09:06:54;11.30;99.90
13049;DHT22;6591;51.446;5.404;2023-02-12T09:09:22;11.30;99.90
13049;DHT22;6591;51.446;5.404;2023-02-12T09:11:49;11.30;99.90
13049;DHT22;6591;51.446;5.404;2023-02-12T09:14:17;11.40;99.90
13049;DHT22;6591;51.446;5.404;2023-02-12T09:16:53;11.50;99.90
13049;DHT22;6591;51.446;5.404;2023-02-12T09:19:21;11.50;99.90
13049;DHT22;6591;51.446;5.404;2023-02-12T09:21:53;11.60;99.90
13049;DHT22;6591;51.446;5.404;2023-02-12T09:24:23;11.70;99.90
13049;DHT22;6591;51.446;5.404;2023-02-12T09:26:51;11.70;99.90
13049;DHT22;6591;51.446;5.404;2023-02-12T09:29:18;12.30;99.90
13049;DHT22;6591;51.446;5.404;2023-02-12T09:31:45;13.30;99.90
13049;DHT22;6591;51.446;5.404;2023-02-12T09:34:12;11.90;99.90
13049;DHT22;6591;51.446;5.404;2023-02-12T09:36:39;11.90;99.90
13049;DHT22;6591;51.446;5.404;2023-02-12T09:39:07;11.90;99.90
13049;DHT22;6591;51.446;5.404;2023-02-12T09:41:59;12.00;99.90
13049;DHT22;6591;51.446;5.404;2023-02-12T09:47:38;11.90;99.90
13049;DHT22;6591;51.446;5.404;2023-02-12T09:52:59;11.90;99.90
13049;DHT22;6591;51.446;5.404;2023-02-12T09:55:32;12.20;99.90
13049;DHT22;6591;51.446;5.404;2023-02-12T09:58:03;12.10;99.90
13049;DHT22;6591;51.446;5.404;2023-02-12T10:00:40;13.00;99.90
13049;DHT22;6591;51.446;5.404;2023-02-12T10:03:13;12.90;99.90
13049;DHT22;6591;51.446;5.404;2023-02-12T10:05:52;12.20;99.90
13049;DHT22;6591;51.446;5.404;2023-02-12T10:23:38;12.20;99.90
13049;DHT22;6591;51.446;5.404;2023-02-12T10:26:46;12.30;99.90
13049;DHT22;6591;51.446;5.404;2023-02-12T10:29:24;12.20;99.90
13049;DHT22;6591;51.446;5.404;2023-02-12T10:31:59;12.30;99.90
13049;DHT22;6591;51.446;5.404;2023-02-12T10:34:35;12.30;99.90
13049;DHT22;6591;51.446;5.404;2023-02-12T10:40:17;12.30;99.90
13049;DHT22;6591;51.446;5.404;2023-02-12T10:42:50;12.30;99.90
13049;DHT22;6591;51.446;5.404;2023-02-12T10:45:21;12.40;99.90
13049;DHT22;6591;51.446;5.404;2023-02-12T10:48:16;12.40;99.90
13049;DHT22;6591;51.446;5.404;2023-02-12T10:53:45;12.50;99.90
13049;DHT22;6591;51.446;5.404;2023-02-12T10:56:23;12.60;99.90
13049;DHT22;6591;51.446;5.404;2023-02-12T10:58:55;13.70;99.90
13049;DHT22;6591;51.446;5.404;2023-02-12T11:03:59;12.70;99.90
13049;DHT22;6591;51.446;5.404;2023-02-12T11:07:06;12.80;99.90
13049;DHT22;6591;51.446;5.404;2023-02-12T11:14:54;13.10;99.90
13049;DHT22;6591;51.446;5.404;2023-02-12T11:17:34;13.20;99.90
13049;DHT22;6591;51.446;5.404;2023-02-12T11:22:59;13.40;99.90
13049;DHT22;6591;51.446;5.404;2023-02-12T11:25:32;13.50;99.90
13049;DHT22;6591;51.446;5.404;2023-02-12T11:28:16;13.60;99.90
13049;DHT22;6591;51.446;5.404;2023-02-12T11:33:43;13.90;99.90
13049;DHT22;6591;51.446;5.404;2023-02-12T11:36:24;14.00;99.90
13049;DHT22;6591;51.446;5.404;2023-02-12T11:38:59;14.10;99.90
13049;DHT22;6591;51.446;5.404;2023-02-12T11:41:36;14.20;99.90
13049;DHT22;6591;51.446;5.404;2023-02-12T11:44:36;14.50;99.90
13049;DHT22;6591;51.446;5.404;2023-02-12T11:47:16;14.20;99.90
13049;DHT22;6591;51.446;5.404;2023-02-12T11:49:53;14.60;99.90
13049;DHT22;6591;51.446;5.404;2023-02-12T11:52:35;14.20;99.90
13049;DHT22;6591;51.446;5.404;2023-02-12T11:55:20;14.30;99.90
13049;DHT22;6591;51.446;5.404;2023-02-12T11:57:51;14.30;99.90
13049;DHT22;6591;51.446;5.404;2023-02-12T12:14:43;14.40;99.90
13049;DHT22;6591;51.446;5.404;2023-02-12T12:17:53;14.40;99.90
13049;DHT22;6591;51.446;5.404;2023-02-12T12:20:50;14.40;99.90
13049;DHT22;6591;51.446;5.404;2023-02-12T12:23:27;14.40;99.90
13049;DHT22;6591;51.446;5.404;2023-02-12T12:26:06;14.40;99.90
13049;DHT22;6591;51.446;5.404;2023-02-12T12:28:42;14.40;99.90
13049;DHT22;6591;51.446;5.404;2023-02-12T12:31:22;15.10;99.90
13049;DHT22;6591;51.446;5.404;2023-02-12T12:34:18;14.40;99.90
13049;DHT22;6591;51.446;5.404;2023-02-12T12:43:29;14.40;99.90
13049;DHT22;6591;51.446;5.404;2023-02-12T12:52:02;13.20;99.90
13049;DHT22;6591;51.446;5.404;2023-02-12T12:58:00;14.30;99.90
13049;DHT22;6591;51.446;5.404;2023-02-12T13:15:25;14.10;99.30
13049;DHT22;6591;51.446;5.404;2023-02-12T13:27:31;13.80;99.50
13049;DHT22;6591;51.446;5.404;2023-02-12T13:35:44;13.70;99.90
13049;DHT22;6591;51.446;5.404;2023-02-12T13:38:22;13.70;99.70
13049;DHT22;6591;51.446;5.404;2023-02-12T13:40:57;14.40;99.70
13049;DHT22;6591;51.446;5.404;2023-02-12T13:46:16;13.50;99.30
13049;DHT22;6591;51.446;5.404;2023-02-12T13:48:53;13.50;99.20
13049;DHT22;6591;51.446;5.404;2023-02-12T13:51:49;13.40;99.50
13049;DHT22;6591;51.446;5.404;2023-02-12T13:57:17;13.30;99.20
13049;DHT22;6591;51.446;5.404;2023-02-12T13:59:50;13.20;99.30
13049;DHT22;6591;51.446;5.404;2023-02-12T14:05:24;13.10;99.30
13049;DHT22;6591;51.446;5.404;2023-02-12T14:07:57;13.00;99.70
13049;DHT22;6591;51.446;5.404;2023-02-12T14:13:15;13.00;99.90
13049;DHT22;6591;51.446;5.404;2023-02-12T14:15:58;13.00;99.90
13049;DHT22;6591;51.446;5.404;2023-02-12T14:22:13;13.00;99.90
13049;DHT22;6591;51.446;5.404;2023-02-12T14:27:51;13.00;99.90
13049;DHT22;6591;51.446;5.404;2023-02-12T14:30:34;13.00;99.90
13049;DHT22;6591;51.446;5.404;2023-02-12T14:35:33;14.50;99.90
13049;DHT22;6591;51.446;5.404;2023-02-12T14:40:47;13.00;99.90
13049;DHT22;6591;51.446;5.404;2023-02-12T14:48:54;12.90;99.90
13049;DHT22;6591;51.446;5.404;2023-02-12T14:51:56;12.80;99.90
13049;DHT22;6591;51.446;5.404;2023-02-12T14:54:30;12.80;99.70
13049;DHT22;6591;51.446;5.404;2023-02-12T14:57:11;12.80;99.90
13049;DHT22;6591;51.446;5.404;2023-02-12T15:06:23;12.70;99.90
13049;DHT22;6591;51.446;5.404;2023-02-12T15:09:13;12.70;99.90
13049;DHT22;6591;51.446;5.404;2023-02-12T15:11:51;12.70;99.90
13049;DHT22;6591;51.446;5.404;2023-02-12T15:14:30;13.60;99.90
13049;DHT22;6591;51.446;5.404;2023-02-12T15:17:19;12.70;99.90
13049;DHT22;6591;51.446;5.404;2023-02-12T15:22:41;12.70;99.90
13049;DHT22;6591;51.446;5.404;2023-02-12T15:25:29;12.70;99.90
13049;DHT22;6591;51.446;5.404;2023-02-12T15:28:00;12.70;99.90
13049;DHT22;6591;51.446;5.404;2023-02-12T15:30:34;12.70;99.90
13049;DHT22;6591;51.446;5.404;2023-02-12T15:33:05;14.20;99.90
13049;DHT22;6591;51.446;5.404;2023-02-12T15:35:36;12.60;99.90
13049;DHT22;6591;51.446;5.404;2023-02-12T15:38:06;12.70;99.90
13049;DHT22;6591;51.446;5.404;2023-02-12T15:40:34;12.60;99.90
13049;DHT22;6591;51.446;5.404;2023-02-12T15:43:03;13.40;99.90
13049;DHT22;6591;51.446;5.404;2023-02-12T15:45:33;12.50;99.90
13049;DHT22;6591;51.446;5.404;2023-02-12T15:53:22;12.40;99.90
13049;DHT22;6591;51.446;5.404;2023-02-12T15:55:52;12.40;99.90
13049;DHT22;6591;51.446;5.404;2023-02-12T15:58:25;13.60;99.90
13049;DHT22;6591;51.446;5.404;2023-02-12T16:01:01;13.80;99.90
13049;DHT22;6591;51.446;5.404;2023-02-12T16:03:33;12.40;99.90
13049;DHT22;6591;51.446;5.404;2023-02-12T16:06:08;12.40;99.90
13049;DHT22;6591;51.446;5.404;2023-02-12T16:08:42;12.40;99.90
13049;DHT22;6591;51.446;5.404;2023-02-12T16:11:12;12.30;99.90
13049;DHT22;6591;51.446;5.404;2023-02-12T16:13:51;12.50;99.90
13049;DHT22;6591;51.446;5.404;2023-02-12T16:16:26;12.30;99.90
13049;DHT22;6591;51.446;5.404;2023-02-12T16:19:15;12.30;99.90
13049;DHT22;6591;51.446;5.404;2023-02-12T16:21:46;13.30;99.90
13049;DHT22;6591;51.446;5.404;2023-02-12T16:26:59;12.20;99.90
13049;DHT22;6591;51.446;5.404;2023-02-12T16:29:37;12.20;99.90
13049;DHT22;6591;51.446;5.404;2023-02-12T16:32:40;12.20;99.90
13049;DHT22;6591;51.446;5.404;2023-02-12T16:47:56;12.30;99.90
13049;DHT22;6591;51.446;5.404;2023-02-12T16:50:34;12.00;99.90
13049;DHT22;6591;51.446;5.404;2023-02-12T16:53:16;13.70;99.90
13049;DHT22;6591;51.446;5.404;2023-02-12T16:56:04;13.80;99.90
13049;DHT22;6591;51.446;5.404;2023-02-12T16:58:31;11.90;99.90
13049;DHT22;6591;51.446;5.404;2023-02-12T17:01:01;11.90;99.90
13049;DHT22;6591;51.446;5.404;2023-02-12T17:03:30;11.80;99.90
13049;DHT22;6591;51.446;5.404;2023-02-12T17:05:57;13.00;99.90
13049;DHT22;6591;51.446;5.404;2023-02-12T17:08:28;11.80;99.90
13049;DHT22;6591;51.446;5.404;2023-02-12T17:10:55;11.80;99.90
13049;DHT22;6591;51.446;5.404;2023-02-12T17:13:22;13.10;99.90
13049;DHT22;6591;51.446;5.404;2023-02-12T17:15:56;12.20;99.90
13049;DHT22;6591;51.446;5.404;2023-02-12T17:18:25;11.70;99.90
13049;DHT22;6591;51.446;5.404;2023-02-12T17:20:55;11.70;99.90
13049;DHT22;6591;51.446;5.404;2023-02-12T17:23:29;11.70;99.90
13049;DHT22;6591;51.446;5.404;2023-02-12T17:25:57;11.70;99.90
13049;DHT22;6591;51.446;5.404;2023-02-12T17:28:24;11.60;99.90
13049;DHT22;6591;51.446;5.404;2023-02-12T17:30:52;11.60;99.90
13049;DHT22;6591;51.446;5.404;2023-02-12T17:33:20;11.60;99.90
13049;DHT22;6591;51.446;5.404;2023-02-12T17:35:48;11.80;99.90
13049;DHT22;6591;51.446;5.404;2023-02-12T17:38:16;11.50;99.90
13049;DHT22;6591;51.446;5.404;2023-02-12T17:40:43;11.50;99.90
13049;DHT22;6591;51.446;5.404;2023-02-12T17:43:10;11.50;99.90
13049;DHT22;6591;51.446;5.404;2023-02-12T17:45:41;12.10;99.90
13049;DHT22;6591;51.446;5.404;2023-02-12T17:48:13;11.90;99.90
13049;DHT22;6591;51.446;5.404;2023-02-12T17:50:42;11.40;99.90
13049;DHT22;6591;51.446;5.404;2023-02-12T17:53:12;12.50;99.90
13049;DHT22;6591;51.446;5.404;2023-02-12T17:55:40;11.40;99.90
13049;DHT22;6591;51.446;5.404;2023-02-12T17:58:07;11.40;99.90
13049;DHT22;6591;51.446;5.404;2023-02-12T18:00:34;12.20;99.90
13049;DHT22;6591;51.446;5.404;2023-02-12T18:03:01;11.40;99.90
13049;DHT22;6591;51.446;5.404;2023-02-12T18:05:28;11.40;99.90
13049;DHT22;6591;51.446;5.404;2023-02-12T18:07:55;11.40;99.90
13049;DHT22;6591;51.446;5.404;2023-02-12T18:10:22;11.40;99.90
13049;DHT22;6591;51.446;5.404;2023-02-12T18:12:50;12.00;99.90
13049;DHT22;6591;51.446;5.404;2023-02-12T18:15:17;11.30;99.90
13049;DHT22;6591;51.446;5.404;2023-02-12T18:17:46;11.30;99.90
13049;DHT22;6591;51.446;5.404;2023-02-12T18:20:13;11.40;99.90
13049;DHT22;6591;51.446;5.404;2023-02-12T18:22:40;11.40;99.90
13049;DHT22;6591;51.446;5.404;2023-02-12T18:25:07;11.30;99.90
13049;DHT22;6591;51.446;5.404;2023-02-12T18:27:34;11.30;99.90
13049;DHT22;6591;51.446;5.404;2023-02-12T18:30:02;11.40;99.90
13049;DHT22;6591;51.446;5.404;2023-02-12T18:32:29;11.20;99.90
13049;DHT22;6591;51.446;5.404;2023-02-12T18:34:56;11.20;99.90
13049;DHT22;6591;51.446;5.404;2023-02-12T18:37:23;11.20;99.90
13049;DHT22;6591;51.446;5.404;2023-02-12T18:39:50;11.20;99.90
13049;DHT22;6591;51.446;5.404;2023-02-12T18:42:17;11.20;99.90
13049;DHT22;6591;51.446;5.404;2023-02-12T18:44:44;11.20;99.90
13049;DHT22;6591;51.446;5.404;2023-02-12T18:47:11;11.20;99.90
13049;DHT22;6591;51.446;5.404;2023-02-12T18:49:38;11.20;99.90
13049;DHT22;6591;51.446;5.404;2023-02-12T18:52:05;12.30;99.90
13049;DHT22;6591;51.446;5.404;2023-02-12T18:54:32;11.10;99.90
13049;DHT22;6591;51.446;5.404;2023-02-12T18:57:00;12.60;99.90
13049;DHT22;6591;51.446;5.404;2023-02-12T18:59:27;11.10;99.90
13049;DHT22;6591;51.446;5.404;2023-02-12T19:01:54;11.10;99.90
13049;DHT22;6591;51.446;5.404;2023-02-12T19:04:22;11.10;99.90
13049;DHT22;6591;51.446;5.404;2023-02-12T19:06:52;12.80;99.90
13049;DHT22;6591;51.446;5.404;2023-02-12T19:09:23;11.50;99.90
13049;DHT22;6591;51.446;5.404;2023-02-12T19:11:54;11.10;99.90
13049;DHT22;6591;51.446;5.404;2023-02-12T19:14:23;11.10;99.90
13049;DHT22;6591;51.446;5.404;2023-02-12T19:16:51;11.10;99.90
13049;DHT22;6591;51.446;5.404;2023-02-12T19:19:19;11.10;99.90
13049;DHT22;6591;51.446;5.404;2023-02-12T19:21:48;12.30;99.90
13049;DHT22;6591;51.446;5.404;2023-02-12T19:24:15;11.10;99.90
13049;DHT22;6591;51.446;5.404;2023-02-12T19:26:43;11.10;99.90
13049;DHT22;6591;51.446;5.404;2023-02-12T19:29:11;12.60;99.90
13049;DHT22;6591;51.446;5.404;2023-02-12T19:31:43;11.10;99.90
13049;DHT22;6591;51.446;5.404;2023-02-12T19:34:16;11.00;99.90
13049;DHT22;6591;51.446;5.404;2023-02-12T19:36:46;11.00;99.90
13049;DHT22;6591;51.446;5.404;2023-02-12T19:39:17;11.80;99.90
13049;DHT22;6591;51.446;5.404;2023-02-12T19:41:48;11.10;99.90
13049;DHT22;6591;51.446;5.404;2023-02-12T19:44:21;11.00;99.90
13049;DHT22;6591;51.446;5.404;2023-02-12T19:46:50;11.00;99.90
13049;DHT22;6591;51.446;5.404;2023-02-12T19:49:21;11.00;99.90
13049;DHT22;6591;51.446;5.404;2023-02-12T19:51:49;12.00;99.90